Startpagina
METAR-TAF:

METAR-TAF

Vliegvelden :

Bamako, Mali

Luchthaven Bamako

breedte: 12-32N, lengte: 007-57W, hoogte: 380 m

Actueel weer

Dit bericht is 36 minuten geleden gemaakt, om 15:30 UTC
Wind 4 kt uit het noordnoordoosten
Temperatuur 32°C
Vochtigheid 11%
Druk 1010 hPa
Zicht 10 km of meer
geen wolken onder 1500 m en geen cumulonimbus

METAR: GABS 191530Z 02004KT CAVOK 32/M02 Q1010 NOSIG

Tijdstip: 16:06 (16:06 UTC)

Verwachting

Dit bericht is 5 uur en het 1 minuten geleden gemaakt, om 11:05 UTC
Verwachting geldig van 19 om 12 UTC tot 20 om 18 UTC
Wind 8 kt uit het oostnoordoosten met uitschieters tot 18 kt
Zicht: 8000 m
Kans 30% :
Tijdelijke
van 19 om 17 UTC tot 19 om 22 UTC
Zicht: 4500 m
Heiigheid
Kans 40% :
Tijdelijke
van 20 om 06 UTC tot 20 om 10 UTC
Zicht: 4000 m
Heiigheid

TAF: GABS 191105Z 1912/2018 06008G18KT 8000 NSC PROB30 TEMPO 1917/1922 4500 HZ PROB40 TEMPO 2006/2010 4000 HZ

Waarnemingen en weersverwachtingen van meer dan 4000 vliegvelden (METAR en TAF).

De beschikbare stations zijn de gele en rode punten op de kaart.

Ga met uw muis naar het station om de naam te zien.

Klik dan om waarnemingen en weersverwachtingen te zien.

kaart wijzigen: klik op de groene knoppen met een zwart kruis om in te zoomen, op de groene knop met een streepje om uit te zoomen of op de groene pijlen voor aangrenzende kaarten.


METAR-TAF: